sensor_id;sensor_type;location;lat;lon;timestamp;temperature;humidity
6627;DHT22;3349;49.830;8.748;2022-08-21T00:00:43;16.50;1.00
6627;DHT22;3349;49.830;8.748;2022-08-21T00:03:11;16.40;1.00
6627;DHT22;3349;49.830;8.748;2022-08-21T00:05:41;16.40;1.00
6627;DHT22;3349;49.830;8.748;2022-08-21T00:08:09;16.30;1.00
6627;DHT22;3349;49.830;8.748;2022-08-21T00:10:35;16.30;1.00
6627;DHT22;3349;49.830;8.748;2022-08-21T00:13:04;16.30;1.00
6627;DHT22;3349;49.830;8.748;2022-08-21T00:15:34;16.20;1.00
6627;DHT22;3349;49.830;8.748;2022-08-21T00:18:02;16.20;1.00
6627;DHT22;3349;49.830;8.748;2022-08-21T00:20:30;16.20;1.00
6627;DHT22;3349;49.830;8.748;2022-08-21T00:22:57;16.20;1.00
6627;DHT22;3349;49.830;8.748;2022-08-21T00:25:24;16.20;1.00
6627;DHT22;3349;49.830;8.748;2022-08-21T00:27:51;16.20;1.00
6627;DHT22;3349;49.830;8.748;2022-08-21T00:30:22;16.10;1.00
6627;DHT22;3349;49.830;8.748;2022-08-21T00:32:50;16.10;1.00
6627;DHT22;3349;49.830;8.748;2022-08-21T00:35:18;16.10;1.00
6627;DHT22;3349;49.830;8.748;2022-08-21T00:37:45;16.10;1.00
6627;DHT22;3349;49.830;8.748;2022-08-21T00:40:16;16.10;1.00
6627;DHT22;3349;49.830;8.748;2022-08-21T00:42:43;16.00;1.00
6627;DHT22;3349;49.830;8.748;2022-08-21T00:45:11;16.00;1.00
6627;DHT22;3349;49.830;8.748;2022-08-21T00:47:39;16.00;1.00
6627;DHT22;3349;49.830;8.748;2022-08-21T00:50:08;16.00;1.00
6627;DHT22;3349;49.830;8.748;2022-08-21T00:52:37;15.90;1.00
6627;DHT22;3349;49.830;8.748;2022-08-21T00:55:07;15.90;1.00
6627;DHT22;3349;49.830;8.748;2022-08-21T00:57:38;15.80;1.00
6627;DHT22;3349;49.830;8.748;2022-08-21T01:00:11;15.80;1.00
6627;DHT22;3349;49.830;8.748;2022-08-21T01:02:40;15.80;1.00
6627;DHT22;3349;49.830;8.748;2022-08-21T01:05:08;15.80;1.00
6627;DHT22;3349;49.830;8.748;2022-08-21T01:07:35;15.80;1.00
6627;DHT22;3349;49.830;8.748;2022-08-21T01:10:03;15.70;1.00
6627;DHT22;3349;49.830;8.748;2022-08-21T01:18:59;15.60;1.00
6627;DHT22;3349;49.830;8.748;2022-08-21T01:21:27;15.60;1.00
6627;DHT22;3349;49.830;8.748;2022-08-21T01:27:16;15.50;1.00
6627;DHT22;3349;49.830;8.748;2022-08-21T01:29:46;15.50;1.00
6627;DHT22;3349;49.830;8.748;2022-08-21T01:32:18;15.50;1.00
6627;DHT22;3349;49.830;8.748;2022-08-21T01:34:48;15.50;1.00
6627;DHT22;3349;49.830;8.748;2022-08-21T01:37:18;15.50;1.00
6627;DHT22;3349;49.830;8.748;2022-08-21T01:39:45;15.50;1.00
6627;DHT22;3349;49.830;8.748;2022-08-21T01:42:13;15.40;1.00
6627;DHT22;3349;49.830;8.748;2022-08-21T01:44:41;15.40;1.00
6627;DHT22;3349;49.830;8.748;2022-08-21T01:47:11;15.40;1.00
6627;DHT22;3349;49.830;8.748;2022-08-21T01:49:39;15.40;1.00
6627;DHT22;3349;49.830;8.748;2022-08-21T01:52:07;15.30;1.00
6627;DHT22;3349;49.830;8.748;2022-08-21T01:54:37;15.30;1.00
6627;DHT22;3349;49.830;8.748;2022-08-21T01:57:05;15.20;1.00
6627;DHT22;3349;49.830;8.748;2022-08-21T01:59:33;15.20;1.00
6627;DHT22;3349;49.830;8.748;2022-08-21T02:02:00;15.20;1.00
6627;DHT22;3349;49.830;8.748;2022-08-21T02:04:26;15.20;1.00
6627;DHT22;3349;49.830;8.748;2022-08-21T02:06:53;15.10;1.00
6627;DHT22;3349;49.830;8.748;2022-08-21T02:09:20;15.10;1.00
6627;DHT22;3349;49.830;8.748;2022-08-21T02:11:49;15.10;1.00
6627;DHT22;3349;49.830;8.748;2022-08-21T02:14:17;15.10;1.00
6627;DHT22;3349;49.830;8.748;2022-08-21T02:16:45;15.10;1.00
6627;DHT22;3349;49.830;8.748;2022-08-21T02:19:14;15.10;1.00
6627;DHT22;3349;49.830;8.748;2022-08-21T02:21:41;15.00;1.00
6627;DHT22;3349;49.830;8.748;2022-08-21T02:24:09;15.00;1.00
6627;DHT22;3349;49.830;8.748;2022-08-21T02:26:35;15.00;1.00
6627;DHT22;3349;49.830;8.748;2022-08-21T02:29:04;15.00;1.00
6627;DHT22;3349;49.830;8.748;2022-08-21T02:31:31;14.90;1.00
6627;DHT22;3349;49.830;8.748;2022-08-21T02:33:58;14.90;1.00
6627;DHT22;3349;49.830;8.748;2022-08-21T02:36:25;14.90;1.00
6627;DHT22;3349;49.830;8.748;2022-08-21T02:38:52;14.90;1.00
6627;DHT22;3349;49.830;8.748;2022-08-21T02:41:20;14.90;1.00
6627;DHT22;3349;49.830;8.748;2022-08-21T02:43:47;14.80;1.00
6627;DHT22;3349;49.830;8.748;2022-08-21T02:46:17;14.80;1.00
6627;DHT22;3349;49.830;8.748;2022-08-21T02:48:44;14.80;1.00
6627;DHT22;3349;49.830;8.748;2022-08-21T02:51:13;14.80;1.00
6627;DHT22;3349;49.830;8.748;2022-08-21T02:53:41;14.70;1.00
6627;DHT22;3349;49.830;8.748;2022-08-21T02:56:11;14.70;1.00
6627;DHT22;3349;49.830;8.748;2022-08-21T02:58:41;14.70;1.00
6627;DHT22;3349;49.830;8.748;2022-08-21T03:01:08;14.70;1.00
6627;DHT22;3349;49.830;8.748;2022-08-21T03:03:38;14.70;1.00
6627;DHT22;3349;49.830;8.748;2022-08-21T03:06:07;14.70;1.00
6627;DHT22;3349;49.830;8.748;2022-08-21T03:08:35;14.60;1.00
6627;DHT22;3349;49.830;8.748;2022-08-21T03:11:03;14.60;1.00
6627;DHT22;3349;49.830;8.748;2022-08-21T03:13:30;14.60;1.00
6627;DHT22;3349;49.830;8.748;2022-08-21T03:15:57;14.50;1.00
6627;DHT22;3349;49.830;8.748;2022-08-21T03:18:24;14.50;1.00
6627;DHT22;3349;49.830;8.748;2022-08-21T03:20:53;14.50;1.00
6627;DHT22;3349;49.830;8.748;2022-08-21T03:23:19;14.50;1.00
6627;DHT22;3349;49.830;8.748;2022-08-21T03:25:47;14.50;1.00
6627;DHT22;3349;49.830;8.748;2022-08-21T03:28:17;14.40;1.00
6627;DHT22;3349;49.830;8.748;2022-08-21T03:30:46;14.40;1.00
6627;DHT22;3349;49.830;8.748;2022-08-21T03:33:14;14.40;1.00
6627;DHT22;3349;49.830;8.748;2022-08-21T03:35:41;14.40;1.00
6627;DHT22;3349;49.830;8.748;2022-08-21T03:38:09;14.40;1.00
6627;DHT22;3349;49.830;8.748;2022-08-21T03:40:38;14.30;1.00
6627;DHT22;3349;49.830;8.748;2022-08-21T03:43:04;14.30;1.00
6627;DHT22;3349;49.830;8.748;2022-08-21T03:45:34;14.30;1.00
6627;DHT22;3349;49.830;8.748;2022-08-21T03:48:03;14.30;1.00
6627;DHT22;3349;49.830;8.748;2022-08-21T03:50:33;14.30;1.00
6627;DHT22;3349;49.830;8.748;2022-08-21T03:53:01;14.30;1.00
6627;DHT22;3349;49.830;8.748;2022-08-21T03:55:29;14.30;1.00
6627;DHT22;3349;49.830;8.748;2022-08-21T03:57:56;14.20;1.00
6627;DHT22;3349;49.830;8.748;2022-08-21T04:00:23;14.20;1.00
6627;DHT22;3349;49.830;8.748;2022-08-21T04:02:50;14.20;1.00
6627;DHT22;3349;49.830;8.748;2022-08-21T04:05:17;14.20;1.00
6627;DHT22;3349;49.830;8.748;2022-08-21T04:07:54;14.20;1.00
6627;DHT22;3349;49.830;8.748;2022-08-21T04:10:21;14.20;1.00
6627;DHT22;3349;49.830;8.748;2022-08-21T04:12:50;14.10;1.00
6627;DHT22;3349;49.830;8.748;2022-08-21T04:15:18;14.10;1.00
6627;DHT22;3349;49.830;8.748;2022-08-21T04:17:45;14.10;1.00
6627;DHT22;3349;49.830;8.748;2022-08-21T04:20:12;14.20;1.00
6627;DHT22;3349;49.830;8.748;2022-08-21T04:22:39;14.20;1.00
6627;DHT22;3349;49.830;8.748;2022-08-21T04:25:06;14.10;1.00
6627;DHT22;3349;49.830;8.748;2022-08-21T04:27:34;14.10;1.00
6627;DHT22;3349;49.830;8.748;2022-08-21T04:30:03;14.10;1.00
6627;DHT22;3349;49.830;8.748;2022-08-21T04:32:30;14.10;1.00
6627;DHT22;3349;49.830;8.748;2022-08-21T04:34:59;14.10;1.00
6627;DHT22;3349;49.830;8.748;2022-08-21T04:37:26;14.10;1.00
6627;DHT22;3349;49.830;8.748;2022-08-21T04:39:54;14.10;1.00
6627;DHT22;3349;49.830;8.748;2022-08-21T04:42:23;14.10;1.00
6627;DHT22;3349;49.830;8.748;2022-08-21T04:44:50;14.10;1.00
6627;DHT22;3349;49.830;8.748;2022-08-21T04:47:18;14.10;1.00
6627;DHT22;3349;49.830;8.748;2022-08-21T04:49:45;14.10;1.00
6627;DHT22;3349;49.830;8.748;2022-08-21T04:52:15;14.10;1.00
6627;DHT22;3349;49.830;8.748;2022-08-21T04:54:44;14.20;1.00
6627;DHT22;3349;49.830;8.748;2022-08-21T04:57:12;14.20;1.00
6627;DHT22;3349;49.830;8.748;2022-08-21T04:59:44;14.20;1.00
6627;DHT22;3349;49.830;8.748;2022-08-21T05:02:12;14.20;1.00
6627;DHT22;3349;49.830;8.748;2022-08-21T05:04:43;14.30;1.00
6627;DHT22;3349;49.830;8.748;2022-08-21T05:07:12;14.30;1.00
6627;DHT22;3349;49.830;8.748;2022-08-21T05:09:41;14.30;1.00
6627;DHT22;3349;49.830;8.748;2022-08-21T05:12:08;14.30;1.00
6627;DHT22;3349;49.830;8.748;2022-08-21T05:14:35;14.40;1.00
6627;DHT22;3349;49.830;8.748;2022-08-21T05:17:02;14.50;1.00
6627;DHT22;3349;49.830;8.748;2022-08-21T05:19:29;14.50;1.00
6627;DHT22;3349;49.830;8.748;2022-08-21T05:21:58;14.60;1.00
6627;DHT22;3349;49.830;8.748;2022-08-21T05:24:26;14.60;1.00
6627;DHT22;3349;49.830;8.748;2022-08-21T05:26:52;14.70;1.00
6627;DHT22;3349;49.830;8.748;2022-08-21T05:29:20;14.70;1.00
6627;DHT22;3349;49.830;8.748;2022-08-21T05:31:47;14.80;1.00
6627;DHT22;3349;49.830;8.748;2022-08-21T05:34:17;14.90;1.00
6627;DHT22;3349;49.830;8.748;2022-08-21T05:36:44;14.90;1.00
6627;DHT22;3349;49.830;8.748;2022-08-21T05:39:12;14.90;1.00
6627;DHT22;3349;49.830;8.748;2022-08-21T05:41:39;15.00;1.00
6627;DHT22;3349;49.830;8.748;2022-08-21T05:44:06;15.10;1.00
6627;DHT22;3349;49.830;8.748;2022-08-21T05:46:33;15.10;1.00
6627;DHT22;3349;49.830;8.748;2022-08-21T05:48:59;15.20;1.00
6627;DHT22;3349;49.830;8.748;2022-08-21T05:51:26;15.20;1.00
6627;DHT22;3349;49.830;8.748;2022-08-21T05:53:53;15.30;1.00
6627;DHT22;3349;49.830;8.748;2022-08-21T05:56:21;15.40;1.00
6627;DHT22;3349;49.830;8.748;2022-08-21T05:58:48;15.50;1.00
6627;DHT22;3349;49.830;8.748;2022-08-21T06:01:14;15.60;1.00
6627;DHT22;3349;49.830;8.748;2022-08-21T06:03:41;15.70;1.00
6627;DHT22;3349;49.830;8.748;2022-08-21T06:06:08;15.70;1.00
6627;DHT22;3349;49.830;8.748;2022-08-21T06:08:35;15.80;1.00
6627;DHT22;3349;49.830;8.748;2022-08-21T06:11:03;15.90;1.00
6627;DHT22;3349;49.830;8.748;2022-08-21T06:13:33;16.00;1.00
6627;DHT22;3349;49.830;8.748;2022-08-21T06:16:06;16.10;1.00
6627;DHT22;3349;49.830;8.748;2022-08-21T06:18:33;16.20;1.00
6627;DHT22;3349;49.830;8.748;2022-08-21T06:21:00;16.30;1.00
6627;DHT22;3349;49.830;8.748;2022-08-21T06:23:26;16.40;1.00
6627;DHT22;3349;49.830;8.748;2022-08-21T06:25:53;16.50;1.00
6627;DHT22;3349;49.830;8.748;2022-08-21T06:28:20;16.60;1.00
6627;DHT22;3349;49.830;8.748;2022-08-21T06:30:48;16.70;1.00
6627;DHT22;3349;49.830;8.748;2022-08-21T06:33:15;16.80;1.00
6627;DHT22;3349;49.830;8.748;2022-08-21T06:35:42;16.90;1.00
6627;DHT22;3349;49.830;8.748;2022-08-21T06:38:09;17.00;1.00
6627;DHT22;3349;49.830;8.748;2022-08-21T06:40:36;17.20;1.00
6627;DHT22;3349;49.830;8.748;2022-08-21T06:43:08;17.30;1.00
6627;DHT22;3349;49.830;8.748;2022-08-21T06:45:35;17.40;1.00
6627;DHT22;3349;49.830;8.748;2022-08-21T06:48:04;17.50;1.00
6627;DHT22;3349;49.830;8.748;2022-08-21T06:50:33;17.70;1.00
6627;DHT22;3349;49.830;8.748;2022-08-21T06:53:03;17.80;1.00
6627;DHT22;3349;49.830;8.748;2022-08-21T06:55:31;18.00;1.00
6627;DHT22;3349;49.830;8.748;2022-08-21T06:57:58;18.10;1.00
6627;DHT22;3349;49.830;8.748;2022-08-21T07:00:25;18.30;1.00
6627;DHT22;3349;49.830;8.748;2022-08-21T07:02:52;18.40;1.00
6627;DHT22;3349;49.830;8.748;2022-08-21T07:05:20;18.60;1.00
6627;DHT22;3349;49.830;8.748;2022-08-21T07:07:47;18.70;1.00
6627;DHT22;3349;49.830;8.748;2022-08-21T07:10:15;19.00;1.00
6627;DHT22;3349;49.830;8.748;2022-08-21T07:12:42;19.20;1.00
6627;DHT22;3349;49.830;8.748;2022-08-21T07:15:09;19.40;1.00
6627;DHT22;3349;49.830;8.748;2022-08-21T07:17:36;19.80;1.00
6627;DHT22;3349;49.830;8.748;2022-08-21T07:20:04;20.50;1.00
6627;DHT22;3349;49.830;8.748;2022-08-21T07:22:33;21.20;1.00
6627;DHT22;3349;49.830;8.748;2022-08-21T07:25:01;21.70;1.00
6627;DHT22;3349;49.830;8.748;2022-08-21T07:27:28;22.10;1.00
6627;DHT22;3349;49.830;8.748;2022-08-21T07:29:56;22.40;1.00
6627;DHT22;3349;49.830;8.748;2022-08-21T07:32:23;22.90;1.00
6627;DHT22;3349;49.830;8.748;2022-08-21T07:34:50;23.40;1.00
6627;DHT22;3349;49.830;8.748;2022-08-21T07:37:16;23.60;1.00
6627;DHT22;3349;49.830;8.748;2022-08-21T07:39:45;23.60;1.00
6627;DHT22;3349;49.830;8.748;2022-08-21T07:42:14;23.70;1.00
6627;DHT22;3349;49.830;8.748;2022-08-21T07:44:41;24.00;1.00
6627;DHT22;3349;49.830;8.748;2022-08-21T07:47:08;24.30;1.00
6627;DHT22;3349;49.830;8.748;2022-08-21T07:49:35;25.10;1.00
6627;DHT22;3349;49.830;8.748;2022-08-21T07:52:02;25.20;1.00
6627;DHT22;3349;49.830;8.748;2022-08-21T07:54:29;25.90;1.00
6627;DHT22;3349;49.830;8.748;2022-08-21T07:56:57;27.00;1.00
6627;DHT22;3349;49.830;8.748;2022-08-21T07:59:24;27.80;1.00
6627;DHT22;3349;49.830;8.748;2022-08-21T08:01:50;28.10;1.00
6627;DHT22;3349;49.830;8.748;2022-08-21T08:04:17;29.30;1.00
6627;DHT22;3349;49.830;8.748;2022-08-21T08:06:44;29.80;1.00
6627;DHT22;3349;49.830;8.748;2022-08-21T08:09:11;30.00;1.00
6627;DHT22;3349;49.830;8.748;2022-08-21T08:11:39;29.30;1.00
6627;DHT22;3349;49.830;8.748;2022-08-21T08:14:10;28.70;1.00
6627;DHT22;3349;49.830;8.748;2022-08-21T08:16:37;28.40;1.00
6627;DHT22;3349;49.830;8.748;2022-08-21T08:19:03;28.00;1.00
6627;DHT22;3349;49.830;8.748;2022-08-21T08:21:30;27.60;1.00
6627;DHT22;3349;49.830;8.748;2022-08-21T08:23:59;27.10;1.00
6627;DHT22;3349;49.830;8.748;2022-08-21T08:26:25;26.70;1.00
6627;DHT22;3349;49.830;8.748;2022-08-21T08:28:52;26.40;1.00
6627;DHT22;3349;49.830;8.748;2022-08-21T08:31:20;26.50;1.00
6627;DHT22;3349;49.830;8.748;2022-08-21T08:33:47;26.80;1.00
6627;DHT22;3349;49.830;8.748;2022-08-21T08:36:15;26.80;1.00
6627;DHT22;3349;49.830;8.748;2022-08-21T08:38:42;27.10;1.00
6627;DHT22;3349;49.830;8.748;2022-08-21T08:41:13;27.30;1.00
6627;DHT22;3349;49.830;8.748;2022-08-21T08:43:44;27.30;1.00
6627;DHT22;3349;49.830;8.748;2022-08-21T08:46:15;27.00;1.00
6627;DHT22;3349;49.830;8.748;2022-08-21T08:48:49;27.30;1.00
6627;DHT22;3349;49.830;8.748;2022-08-21T08:51:22;27.00;1.00
6627;DHT22;3349;49.830;8.748;2022-08-21T08:53:52;26.50;1.00
6627;DHT22;3349;49.830;8.748;2022-08-21T08:56:26;26.80;1.00
6627;DHT22;3349;49.830;8.748;2022-08-21T08:58:57;27.30;1.00
6627;DHT22;3349;49.830;8.748;2022-08-21T09:01:25;27.60;1.00
6627;DHT22;3349;49.830;8.748;2022-08-21T09:03:53;27.60;1.00
6627;DHT22;3349;49.830;8.748;2022-08-21T09:06:34;27.90;1.00
6627;DHT22;3349;49.830;8.748;2022-08-21T09:09:15;29.20;1.00
6627;DHT22;3349;49.830;8.748;2022-08-21T09:11:51;31.00;1.00
6627;DHT22;3349;49.830;8.748;2022-08-21T09:14:26;32.40;1.00
6627;DHT22;3349;49.830;8.748;2022-08-21T09:17:01;34.00;1.00
6627;DHT22;3349;49.830;8.748;2022-08-21T09:19:44;33.10;1.00
6627;DHT22;3349;49.830;8.748;2022-08-21T09:22:22;31.50;1.00
6627;DHT22;3349;49.830;8.748;2022-08-21T09:24:56;30.20;1.00
6627;DHT22;3349;49.830;8.748;2022-08-21T09:27:29;30.80;1.00
6627;DHT22;3349;49.830;8.748;2022-08-21T09:29:56;32.00;1.00
6627;DHT22;3349;49.830;8.748;2022-08-21T09:32:26;33.00;1.00
6627;DHT22;3349;49.830;8.748;2022-08-21T09:35:04;34.30;1.00
6627;DHT22;3349;49.830;8.748;2022-08-21T09:37:34;36.30;1.00
6627;DHT22;3349;49.830;8.748;2022-08-21T09:40:02;37.00;1.00
6627;DHT22;3349;49.830;8.748;2022-08-21T09:42:41;37.00;1.00
6627;DHT22;3349;49.830;8.748;2022-08-21T09:45:11;36.60;1.00
6627;DHT22;3349;49.830;8.748;2022-08-21T09:47:39;36.40;1.00
6627;DHT22;3349;49.830;8.748;2022-08-21T09:50:12;36.40;1.00
6627;DHT22;3349;49.830;8.748;2022-08-21T09:52:45;36.70;1.00
6627;DHT22;3349;49.830;8.748;2022-08-21T09:55:20;37.30;1.00
6627;DHT22;3349;49.830;8.748;2022-08-21T09:58:07;36.30;1.00
6627;DHT22;3349;49.830;8.748;2022-08-21T10:00:35;34.70;1.00
6627;DHT22;3349;49.830;8.748;2022-08-21T10:03:11;35.10;1.00
6627;DHT22;3349;49.830;8.748;2022-08-21T10:05:49;35.50;1.00
6627;DHT22;3349;49.830;8.748;2022-08-21T10:08:18;37.10;1.00
6627;DHT22;3349;49.830;8.748;2022-08-21T10:10:45;37.40;1.00
6627;DHT22;3349;49.830;8.748;2022-08-21T10:13:21;38.90;1.00
6627;DHT22;3349;49.830;8.748;2022-08-21T10:16:00;39.00;1.00
6627;DHT22;3349;49.830;8.748;2022-08-21T10:18:35;40.00;1.00
6627;DHT22;3349;49.830;8.748;2022-08-21T10:21:13;38.20;1.00
6627;DHT22;3349;49.830;8.748;2022-08-21T10:23:51;38.10;1.00
6627;DHT22;3349;49.830;8.748;2022-08-21T10:26:35;38.10;1.00
6627;DHT22;3349;49.830;8.748;2022-08-21T10:29:14;38.20;1.00
6627;DHT22;3349;49.830;8.748;2022-08-21T10:31:50;37.90;1.00
6627;DHT22;3349;49.830;8.748;2022-08-21T10:34:30;38.50;1.00
6627;DHT22;3349;49.830;8.748;2022-08-21T10:37:11;39.00;1.00
6627;DHT22;3349;49.830;8.748;2022-08-21T10:39:45;38.70;1.00
6627;DHT22;3349;49.830;8.748;2022-08-21T10:42:25;38.50;1.00
6627;DHT22;3349;49.830;8.748;2022-08-21T10:45:02;37.20;1.00
6627;DHT22;3349;49.830;8.748;2022-08-21T10:47:35;38.30;1.00
6627;DHT22;3349;49.830;8.748;2022-08-21T10:50:09;38.70;1.00
6627;DHT22;3349;49.830;8.748;2022-08-21T10:52:56;38.60;1.00
6627;DHT22;3349;49.830;8.748;2022-08-21T10:55:31;36.90;1.00
6627;DHT22;3349;49.830;8.748;2022-08-21T10:58:01;35.70;1.00
6627;DHT22;3349;49.830;8.748;2022-08-21T11:00:33;35.50;1.00
6627;DHT22;3349;49.830;8.748;2022-08-21T11:03:05;36.00;1.00
6627;DHT22;3349;49.830;8.748;2022-08-21T11:05:42;36.90;1.00
6627;DHT22;3349;49.830;8.748;2022-08-21T11:08:14;36.00;1.00
6627;DHT22;3349;49.830;8.748;2022-08-21T11:10:45;37.30;1.00
6627;DHT22;3349;49.830;8.748;2022-08-21T11:13:17;37.20;1.00
6627;DHT22;3349;49.830;8.748;2022-08-21T11:15:51;37.20;1.00
6627;DHT22;3349;49.830;8.748;2022-08-21T11:18:24;38.30;1.00
6627;DHT22;3349;49.830;8.748;2022-08-21T11:21:01;38.10;1.00
6627;DHT22;3349;49.830;8.748;2022-08-21T11:23:37;38.50;1.00
6627;DHT22;3349;49.830;8.748;2022-08-21T11:26:09;36.30;1.00
6627;DHT22;3349;49.830;8.748;2022-08-21T11:28:43;35.00;1.00
6627;DHT22;3349;49.830;8.748;2022-08-21T11:31:24;34.00;1.00
6627;DHT22;3349;49.830;8.748;2022-08-21T11:34:03;32.30;1.00
6627;DHT22;3349;49.830;8.748;2022-08-21T11:36:36;30.80;1.00
6627;DHT22;3349;49.830;8.748;2022-08-21T11:39:16;31.00;1.00
6627;DHT22;3349;49.830;8.748;2022-08-21T11:41:53;32.80;1.00
6627;DHT22;3349;49.830;8.748;2022-08-21T11:44:29;33.90;1.00
6627;DHT22;3349;49.830;8.748;2022-08-21T11:47:05;35.00;1.00
6627;DHT22;3349;49.830;8.748;2022-08-21T11:49:46;35.40;1.00
6627;DHT22;3349;49.830;8.748;2022-08-21T11:52:20;37.00;1.00
6627;DHT22;3349;49.830;8.748;2022-08-21T11:54:57;37.40;1.00
6627;DHT22;3349;49.830;8.748;2022-08-21T11:57:30;36.30;1.00
6627;DHT22;3349;49.830;8.748;2022-08-21T12:00:03;34.90;1.00
6627;DHT22;3349;49.830;8.748;2022-08-21T12:02:35;34.30;1.00
6627;DHT22;3349;49.830;8.748;2022-08-21T12:05:05;35.30;1.00
6627;DHT22;3349;49.830;8.748;2022-08-21T12:07:35;36.10;1.00
6627;DHT22;3349;49.830;8.748;2022-08-21T12:10:07;37.20;1.00
6627;DHT22;3349;49.830;8.748;2022-08-21T12:12:35;38.30;1.00
6627;DHT22;3349;49.830;8.748;2022-08-21T12:15:25;38.30;1.00
6627;DHT22;3349;49.830;8.748;2022-08-21T12:17:55;38.50;1.00
6627;DHT22;3349;49.830;8.748;2022-08-21T12:20:37;38.20;1.00
6627;DHT22;3349;49.830;8.748;2022-08-21T12:23:17;39.30;1.00
6627;DHT22;3349;49.830;8.748;2022-08-21T12:25:58;38.10;1.00
6627;DHT22;3349;49.830;8.748;2022-08-21T12:28:27;37.20;1.00
6627;DHT22;3349;49.830;8.748;2022-08-21T12:30:56;36.90;1.00
6627;DHT22;3349;49.830;8.748;2022-08-21T12:33:26;36.40;1.00
6627;DHT22;3349;49.830;8.748;2022-08-21T12:36:03;35.60;1.00
6627;DHT22;3349;49.830;8.748;2022-08-21T12:38:33;33.80;1.00
6627;DHT22;3349;49.830;8.748;2022-08-21T12:41:05;33.10;1.00
6627;DHT22;3349;49.830;8.748;2022-08-21T12:43:38;31.80;1.00
6627;DHT22;3349;49.830;8.748;2022-08-21T12:46:06;31.30;1.00
6627;DHT22;3349;49.830;8.748;2022-08-21T12:48:47;31.10;1.00
6627;DHT22;3349;49.830;8.748;2022-08-21T12:51:16;30.50;1.00
6627;DHT22;3349;49.830;8.748;2022-08-21T12:53:46;30.30;1.00
6627;DHT22;3349;49.830;8.748;2022-08-21T12:56:18;29.80;1.00
6627;DHT22;3349;49.830;8.748;2022-08-21T12:58:47;29.40;1.00
6627;DHT22;3349;49.830;8.748;2022-08-21T13:01:19;29.10;1.00
6627;DHT22;3349;49.830;8.748;2022-08-21T13:03:50;28.90;1.00
6627;DHT22;3349;49.830;8.748;2022-08-21T13:06:18;28.50;1.00
6627;DHT22;3349;49.830;8.748;2022-08-21T13:08:48;28.30;1.00
6627;DHT22;3349;49.830;8.748;2022-08-21T13:11:21;28.40;1.00
6627;DHT22;3349;49.830;8.748;2022-08-21T13:13:49;28.50;1.00
6627;DHT22;3349;49.830;8.748;2022-08-21T13:16:20;28.30;1.00
6627;DHT22;3349;49.830;8.748;2022-08-21T13:18:54;28.20;1.00
6627;DHT22;3349;49.830;8.748;2022-08-21T13:21:26;27.90;1.00
6627;DHT22;3349;49.830;8.748;2022-08-21T13:23:53;27.70;1.00
6627;DHT22;3349;49.830;8.748;2022-08-21T13:26:21;27.90;1.00
6627;DHT22;3349;49.830;8.748;2022-08-21T13:28:49;27.80;1.00
6627;DHT22;3349;49.830;8.748;2022-08-21T13:31:20;28.00;1.00
6627;DHT22;3349;49.830;8.748;2022-08-21T13:33:49;28.00;1.00
6627;DHT22;3349;49.830;8.748;2022-08-21T13:36:18;28.00;1.00
6627;DHT22;3349;49.830;8.748;2022-08-21T13:38:46;28.20;1.00
6627;DHT22;3349;49.830;8.748;2022-08-21T13:41:21;27.90;1.00
6627;DHT22;3349;49.830;8.748;2022-08-21T13:43:50;27.70;1.00
6627;DHT22;3349;49.830;8.748;2022-08-21T13:46:24;27.60;1.00
6627;DHT22;3349;49.830;8.748;2022-08-21T13:48:53;27.70;1.00
6627;DHT22;3349;49.830;8.748;2022-08-21T13:51:21;27.50;1.00
6627;DHT22;3349;49.830;8.748;2022-08-21T13:53:49;27.60;1.00
6627;DHT22;3349;49.830;8.748;2022-08-21T13:56:28;27.40;1.00
6627;DHT22;3349;49.830;8.748;2022-08-21T13:58:57;27.40;1.00
6627;DHT22;3349;49.830;8.748;2022-08-21T14:01:27;27.40;1.00
6627;DHT22;3349;49.830;8.748;2022-08-21T14:04:02;27.30;1.00
6627;DHT22;3349;49.830;8.748;2022-08-21T14:06:34;27.30;1.00
6627;DHT22;3349;49.830;8.748;2022-08-21T14:09:08;27.00;1.00
6627;DHT22;3349;49.830;8.748;2022-08-21T14:11:37;27.00;1.00
6627;DHT22;3349;49.830;8.748;2022-08-21T14:14:13;26.90;1.00
6627;DHT22;3349;49.830;8.748;2022-08-21T14:16:44;26.70;1.00
6627;DHT22;3349;49.830;8.748;2022-08-21T14:19:18;26.70;1.00
6627;DHT22;3349;49.830;8.748;2022-08-21T14:21:46;26.80;1.00
6627;DHT22;3349;49.830;8.748;2022-08-21T14:24:14;26.80;1.00
6627;DHT22;3349;49.830;8.748;2022-08-21T14:26:54;26.80;1.00
6627;DHT22;3349;49.830;8.748;2022-08-21T14:29:25;27.00;1.00
6627;DHT22;3349;49.830;8.748;2022-08-21T14:31:55;26.90;1.00
6627;DHT22;3349;49.830;8.748;2022-08-21T14:34:24;26.80;1.00
6627;DHT22;3349;49.830;8.748;2022-08-21T14:36:53;26.70;1.00
6627;DHT22;3349;49.830;8.748;2022-08-21T14:39:20;26.60;1.00
6627;DHT22;3349;49.830;8.748;2022-08-21T14:41:48;26.50;1.00
6627;DHT22;3349;49.830;8.748;2022-08-21T14:44:17;26.50;1.00
6627;DHT22;3349;49.830;8.748;2022-08-21T14:46:44;26.50;1.00
6627;DHT22;3349;49.830;8.748;2022-08-21T14:49:12;26.60;1.00
6627;DHT22;3349;49.830;8.748;2022-08-21T14:51:38;26.80;1.00
6627;DHT22;3349;49.830;8.748;2022-08-21T14:54:06;26.80;1.00
6627;DHT22;3349;49.830;8.748;2022-08-21T14:56:33;27.10;1.00
6627;DHT22;3349;49.830;8.748;2022-08-21T14:59:07;27.40;1.00
6627;DHT22;3349;49.830;8.748;2022-08-21T15:01:44;27.30;1.00
6627;DHT22;3349;49.830;8.748;2022-08-21T15:04:11;27.30;1.00
6627;DHT22;3349;49.830;8.748;2022-08-21T15:06:38;27.30;1.00
6627;DHT22;3349;49.830;8.748;2022-08-21T15:09:05;27.30;1.00
6627;DHT22;3349;49.830;8.748;2022-08-21T15:11:32;27.20;1.00
6627;DHT22;3349;49.830;8.748;2022-08-21T15:14:01;26.90;1.00
6627;DHT22;3349;49.830;8.748;2022-08-21T15:16:29;26.70;1.00
6627;DHT22;3349;49.830;8.748;2022-08-21T15:18:58;26.70;1.00
6627;DHT22;3349;49.830;8.748;2022-08-21T15:21:25;26.90;1.00
6627;DHT22;3349;49.830;8.748;2022-08-21T15:23:52;26.90;1.00
6627;DHT22;3349;49.830;8.748;2022-08-21T15:26:20;27.00;1.00
6627;DHT22;3349;49.830;8.748;2022-08-21T15:28:48;27.00;1.00
6627;DHT22;3349;49.830;8.748;2022-08-21T15:31:15;27.20;1.00
6627;DHT22;3349;49.830;8.748;2022-08-21T15:33:42;27.40;1.00
6627;DHT22;3349;49.830;8.748;2022-08-21T15:36:10;27.50;1.00
6627;DHT22;3349;49.830;8.748;2022-08-21T15:38:37;27.60;1.00
6627;DHT22;3349;49.830;8.748;2022-08-21T15:41:04;27.80;1.00
6627;DHT22;3349;49.830;8.748;2022-08-21T15:43:41;27.90;1.00
6627;DHT22;3349;49.830;8.748;2022-08-21T15:46:12;27.90;1.00
6627;DHT22;3349;49.830;8.748;2022-08-21T15:48:41;28.10;1.00
6627;DHT22;3349;49.830;8.748;2022-08-21T15:51:10;28.20;1.00
6627;DHT22;3349;49.830;8.748;2022-08-21T15:53:37;28.30;1.00
6627;DHT22;3349;49.830;8.748;2022-08-21T15:56:06;28.30;1.00
6627;DHT22;3349;49.830;8.748;2022-08-21T15:58:33;28.50;1.00
6627;DHT22;3349;49.830;8.748;2022-08-21T16:01:00;28.40;1.00
6627;DHT22;3349;49.830;8.748;2022-08-21T16:03:28;28.30;1.00
6627;DHT22;3349;49.830;8.748;2022-08-21T16:05:55;28.30;1.00
6627;DHT22;3349;49.830;8.748;2022-08-21T16:08:24;28.30;1.00
6627;DHT22;3349;49.830;8.748;2022-08-21T16:10:52;28.40;1.00
6627;DHT22;3349;49.830;8.748;2022-08-21T16:13:22;28.50;1.00
6627;DHT22;3349;49.830;8.748;2022-08-21T16:15:50;28.50;1.00
6627;DHT22;3349;49.830;8.748;2022-08-21T16:18:18;28.70;1.00
6627;DHT22;3349;49.830;8.748;2022-08-21T16:20:45;28.80;1.00
6627;DHT22;3349;49.830;8.748;2022-08-21T16:23:12;28.90;1.00
6627;DHT22;3349;49.830;8.748;2022-08-21T16:25:40;29.10;1.00
6627;DHT22;3349;49.830;8.748;2022-08-21T16:28:11;29.20;1.00
6627;DHT22;3349;49.830;8.748;2022-08-21T16:30:39;29.10;1.00
6627;DHT22;3349;49.830;8.748;2022-08-21T16:33:08;29.10;1.00
6627;DHT22;3349;49.830;8.748;2022-08-21T16:35:38;29.20;1.00
6627;DHT22;3349;49.830;8.748;2022-08-21T16:38:06;29.40;1.00
6627;DHT22;3349;49.830;8.748;2022-08-21T16:40:32;29.40;1.00
6627;DHT22;3349;49.830;8.748;2022-08-21T16:43:01;29.30;1.00